createdAt,value
2023-09-06T00:01:07.700Z,2.50
2023-09-06T00:02:30.441Z,3.37
2023-09-06T00:03:53.095Z,3.00
2023-09-06T00:05:15.472Z,3.00
2023-09-06T00:06:37.614Z,3.03
2023-09-06T00:07:59.723Z,2.90
2023-09-06T00:09:22.249Z,3.30
2023-09-06T00:10:45.392Z,3.07
2023-09-06T00:12:08.033Z,3.10
2023-09-06T00:13:32.732Z,2.80
2023-09-06T00:14:56.172Z,3.37
2023-09-06T00:16:18.868Z,3.20
2023-09-06T00:17:42.436Z,3.50
2023-09-06T00:19:05.197Z,3.10
2023-09-06T00:20:27.801Z,2.90
2023-09-06T00:21:50.355Z,2.53
2023-09-06T00:23:13.606Z,3.30
2023-09-06T00:24:36.134Z,2.60
2023-09-06T00:25:58.609Z,3.70
2023-09-06T00:27:21.110Z,3.03
2023-09-06T00:28:43.559Z,3.17
2023-09-06T00:30:08.729Z,2.70
2023-09-06T00:31:32.626Z,2.67
2023-09-06T00:32:55.336Z,3.30
2023-09-06T00:34:17.892Z,3.10
2023-09-06T00:35:40.947Z,3.20
2023-09-06T00:37:04.153Z,3.23
2023-09-06T00:38:27.261Z,3.20
2023-09-06T00:39:50.211Z,2.50
2023-09-06T00:41:12.916Z,3.17
2023-09-06T00:42:35.406Z,2.90
2023-09-06T00:43:57.943Z,3.30
2023-09-06T00:45:24.001Z,2.97
2023-09-06T00:46:46.997Z,2.83
2023-09-06T00:48:09.846Z,3.10
2023-09-06T00:49:33.029Z,2.83
2023-09-06T00:50:56.664Z,3.43
2023-09-06T00:52:19.146Z,3.40
2023-09-06T00:53:43.464Z,3.20
2023-09-06T00:55:06.285Z,3.30
2023-09-06T00:56:29.302Z,3.00
2023-09-06T00:57:51.976Z,3.27
2023-09-06T00:59:15.605Z,3.03
2023-09-06T01:00:38.260Z,3.33
2023-09-06T01:02:01.068Z,2.60
2023-09-06T01:03:23.775Z,2.90
2023-09-06T01:04:46.359Z,3.30
2023-09-06T01:06:28.326Z,3.30
2023-09-06T01:07:57.107Z,3.03
2023-09-06T01:09:19.646Z,2.87
2023-09-06T01:10:42.205Z,3.10
2023-09-06T01:12:04.788Z,3.30
2023-09-06T01:13:27.244Z,3.00
2023-09-06T01:14:49.760Z,3.07
2023-09-06T01:16:13.406Z,3.20
2023-09-06T01:17:38.160Z,3.77
2023-09-06T01:19:01.122Z,3.77
2023-09-06T01:20:30.272Z,3.27
2023-09-06T01:21:52.815Z,3.57
2023-09-06T01:23:35.540Z,3.47
2023-09-06T01:24:58.536Z,3.20
2023-09-06T01:26:21.211Z,3.73
2023-09-06T01:27:43.765Z,3.57
2023-09-06T01:29:06.538Z,3.73
2023-09-06T01:30:32.074Z,3.33
2023-09-06T01:31:54.720Z,3.10
2023-09-06T01:33:17.462Z,3.33
2023-09-06T01:34:39.977Z,3.03
2023-09-06T01:36:02.528Z,3.50
2023-09-06T01:37:24.967Z,3.23
2023-09-06T01:38:48.139Z,3.53
2023-09-06T01:40:18.401Z,2.80
2023-09-06T01:41:40.912Z,3.70
2023-09-06T01:43:03.604Z,3.30
2023-09-06T01:44:28.158Z,3.00
2023-09-06T01:45:55.549Z,3.20
2023-09-06T01:47:19.751Z,3.00
2023-09-06T01:48:42.693Z,3.00
2023-09-06T01:50:05.640Z,3.70
2023-09-06T01:51:28.149Z,3.60
2023-09-06T01:52:50.642Z,2.90
2023-09-06T01:54:13.181Z,3.03
2023-09-06T01:55:35.689Z,3.43
2023-09-06T01:56:58.183Z,3.37
2023-09-06T01:58:20.717Z,3.10
2023-09-06T01:59:43.182Z,3.10
2023-09-06T02:01:06.252Z,2.80
2023-09-06T02:02:28.894Z,3.80
2023-09-06T02:03:51.981Z,3.03
2023-09-06T02:05:16.084Z,2.83
2023-09-06T02:06:38.586Z,2.70
2023-09-06T02:08:02.310Z,3.47
2023-09-06T02:09:24.811Z,3.00
2023-09-06T02:10:47.285Z,3.50
2023-09-06T02:12:09.876Z,3.03
2023-09-06T02:13:32.335Z,2.77
2023-09-06T02:14:57.236Z,2.47
2023-09-06T02:16:19.860Z,2.77
2023-09-06T02:17:46.297Z,3.03
2023-09-06T02:19:09.212Z,2.90
2023-09-06T02:20:31.976Z,2.90
2023-09-06T02:21:54.576Z,3.13
2023-09-06T02:23:17.107Z,2.50
2023-09-06T02:24:40.556Z,3.13
2023-09-06T02:26:04.215Z,2.47
2023-09-06T02:27:26.779Z,2.80
2023-09-06T02:28:51.753Z,2.57
2023-09-06T02:30:14.737Z,2.80
2023-09-06T02:31:39.249Z,3.13
2023-09-06T02:33:02.005Z,3.30
2023-09-06T02:34:24.544Z,3.60
2023-09-06T02:35:47.166Z,3.40
2023-09-06T02:37:09.666Z,2.77
2023-09-06T02:38:32.273Z,3.37
2023-09-06T02:39:54.906Z,3.00
2023-09-06T02:41:17.391Z,3.27
2023-09-06T02:42:40.044Z,3.00
2023-09-06T02:44:02.603Z,3.00
2023-09-06T02:45:35.923Z,3.13
2023-09-06T02:46:58.516Z,2.80
2023-09-06T02:48:22.880Z,2.80
2023-09-06T02:49:49.090Z,3.00
2023-09-06T02:51:12.093Z,3.10
2023-09-06T02:52:37.030Z,3.47
2023-09-06T02:54:03.650Z,2.63
2023-09-06T02:55:26.140Z,2.67
2023-09-06T02:56:49.687Z,3.20
2023-09-06T02:58:12.213Z,3.10
2023-09-06T02:59:34.764Z,2.80
2023-09-06T03:00:59.427Z,3.13
2023-09-06T03:02:22.876Z,2.90
2023-09-06T03:03:46.311Z,3.20
2023-09-06T03:05:10.874Z,2.90
2023-09-06T03:06:34.968Z,3.10
2023-09-06T03:07:57.523Z,2.87
2023-09-06T03:09:29.707Z,2.60
2023-09-06T03:10:53.544Z,3.43
2023-09-06T03:12:17.588Z,3.10
2023-09-06T03:13:40.051Z,3.13
2023-09-06T03:15:02.516Z,3.47
2023-09-06T03:16:25.103Z,3.37
2023-09-06T03:17:48.244Z,2.83
2023-09-06T03:19:11.252Z,3.50
2023-09-06T03:20:44.329Z,2.83
2023-09-06T03:22:07.755Z,3.00
2023-09-06T03:23:31.856Z,3.20
2023-09-06T03:24:56.437Z,2.90
2023-09-06T03:26:19.297Z,3.27
2023-09-06T03:27:45.104Z,3.83
2023-09-06T03:29:11.455Z,3.57
2023-09-06T03:30:35.068Z,2.80
2023-09-06T03:31:58.251Z,3.03
2023-09-06T03:33:20.745Z,3.10
2023-09-06T03:34:43.295Z,3.20
2023-09-06T03:36:08.801Z,3.10
2023-09-06T03:37:31.772Z,3.20
2023-09-06T03:38:56.540Z,4.00
2023-09-06T03:40:26.610Z,3.50
2023-09-06T03:41:49.765Z,3.47
2023-09-06T03:43:30.638Z,3.67
2023-09-06T03:44:53.927Z,3.00
2023-09-06T03:46:17.931Z,3.60
2023-09-06T03:47:40.737Z,3.57
2023-09-06T03:49:06.864Z,3.07
2023-09-06T03:50:29.401Z,3.30
2023-09-06T03:51:52.384Z,2.83
2023-09-06T03:53:15.869Z,3.20
2023-09-06T03:54:38.666Z,3.00
2023-09-06T03:56:01.711Z,3.57
2023-09-06T03:57:24.510Z,3.43
2023-09-06T03:58:46.989Z,2.93
2023-09-06T04:00:25.508Z,3.67
2023-09-06T04:01:48.904Z,3.30
2023-09-06T04:03:13.797Z,3.30
2023-09-06T04:04:37.959Z,3.80
2023-09-06T04:06:04.716Z,3.27
2023-09-06T04:07:27.443Z,4.50
2023-09-06T04:08:51.335Z,3.77
2023-09-06T04:10:17.572Z,4.20
2023-09-06T04:11:40.218Z,3.37
2023-09-06T04:13:03.044Z,3.40
2023-09-06T04:14:25.819Z,3.60
2023-09-06T04:15:48.696Z,3.60
2023-09-06T04:17:11.191Z,3.77
2023-09-06T04:18:33.661Z,5.10
2023-09-06T04:19:57.555Z,4.03
2023-09-06T04:21:21.246Z,4.30
2023-09-06T04:22:43.777Z,3.80
2023-09-06T04:24:09.268Z,4.03
2023-09-06T04:25:34.404Z,3.77
2023-09-06T04:26:56.925Z,3.83
2023-09-06T04:28:22.523Z,3.43
2023-09-06T04:29:44.993Z,3.73
2023-09-06T04:31:07.550Z,4.07
2023-09-06T04:32:30.166Z,3.70
2023-09-06T04:33:52.710Z,3.70
2023-09-06T04:35:16.701Z,3.20
2023-09-06T04:36:39.187Z,4.40
2023-09-06T04:38:05.022Z,3.57
2023-09-06T04:39:30.240Z,3.97
2023-09-06T04:40:53.096Z,3.60
2023-09-06T04:42:15.277Z,3.53
2023-09-06T04:43:37.914Z,5.00
2023-09-06T04:45:00.391Z,4.40
2023-09-06T04:46:22.969Z,4.07
2023-09-06T04:47:45.537Z,3.50
2023-09-06T04:49:08.453Z,3.73
2023-09-06T04:50:31.046Z,3.60
2023-09-06T04:51:53.860Z,3.80
2023-09-06T04:53:19.226Z,3.67
2023-09-06T04:54:44.319Z,3.30
2023-09-06T04:56:07.157Z,3.40
2023-09-06T04:57:29.633Z,3.10
2023-09-06T04:58:52.180Z,2.83
2023-09-06T05:00:31.839Z,3.10
2023-09-06T05:01:54.537Z,3.80
2023-09-06T05:03:20.919Z,2.83
2023-09-06T05:04:45.049Z,3.03
2023-09-06T05:06:07.652Z,2.70
2023-09-06T05:07:31.253Z,3.10
2023-09-06T05:08:54.722Z,3.30
2023-09-06T05:10:17.378Z,2.67
2023-09-06T05:11:39.904Z,3.27
2023-09-06T05:13:02.359Z,3.90
2023-09-06T05:14:24.831Z,3.13
2023-09-06T05:15:47.505Z,2.97
2023-09-06T05:17:10.100Z,2.70
2023-09-06T05:18:32.679Z,2.93
2023-09-06T05:19:55.345Z,2.67
2023-09-06T05:21:17.860Z,2.97
2023-09-06T05:22:40.355Z,3.03
2023-09-06T05:24:02.886Z,2.70
2023-09-06T05:25:25.656Z,2.77
2023-09-06T05:26:48.163Z,3.00
2023-09-06T05:28:11.840Z,3.90
2023-09-06T05:29:34.380Z,3.47
2023-09-06T05:30:56.922Z,2.80
2023-09-06T05:32:20.747Z,3.80
2023-09-06T05:33:44.231Z,2.80
2023-09-06T05:35:07.054Z,3.07
2023-09-06T05:36:29.953Z,2.87
2023-09-06T05:37:52.971Z,3.17
2023-09-06T05:39:15.493Z,3.23
2023-09-06T05:40:38.056Z,3.00
2023-09-06T05:42:02.093Z,3.13
2023-09-06T05:43:24.834Z,2.80
2023-09-06T05:44:47.313Z,3.57
2023-09-06T05:46:17.738Z,3.30
2023-09-06T05:47:43.810Z,3.10
2023-09-06T05:49:06.341Z,3.20
2023-09-06T05:50:29.185Z,2.90
2023-09-06T05:51:51.791Z,3.20
2023-09-06T05:53:14.298Z,2.33
2023-09-06T05:54:36.860Z,3.20
2023-09-06T05:55:59.937Z,2.60
2023-09-06T05:57:22.539Z,3.03
2023-09-06T05:58:45.076Z,3.30
2023-09-06T06:00:14.140Z,3.27
2023-09-06T06:01:37.047Z,2.87
2023-09-06T06:03:00.697Z,3.17
2023-09-06T06:04:23.224Z,2.90
2023-09-06T06:05:45.786Z,3.10
2023-09-06T06:07:08.346Z,3.10
2023-09-06T06:08:31.109Z,3.80
2023-09-06T06:09:53.935Z,3.77
2023-09-06T06:11:16.481Z,4.03
2023-09-06T06:12:40.422Z,3.53
2023-09-06T06:14:10.795Z,3.80
2023-09-06T06:15:33.798Z,4.30
2023-09-06T06:16:56.381Z,3.80
2023-09-06T06:18:18.988Z,3.30
2023-09-06T06:19:41.615Z,4.63
2023-09-06T06:21:05.158Z,4.67
2023-09-06T06:22:28.043Z,3.60
2023-09-06T06:23:50.534Z,3.27
2023-09-06T06:25:13.343Z,3.67
2023-09-06T06:26:35.971Z,3.63
2023-09-06T06:27:58.766Z,3.80
2023-09-06T06:29:21.349Z,4.20
2023-09-06T06:30:43.933Z,4.17
2023-09-06T06:32:06.920Z,4.10
2023-09-06T06:33:29.898Z,4.33
2023-09-06T06:34:55.801Z,4.33
2023-09-06T06:36:18.342Z,4.20
2023-09-06T06:37:40.900Z,5.07
2023-09-06T06:39:03.631Z,4.30
2023-09-06T06:40:27.337Z,4.33
2023-09-06T06:41:49.967Z,5.00
2023-09-06T06:43:13.354Z,5.43
2023-09-06T06:44:35.877Z,5.20
2023-09-06T06:45:58.552Z,5.47
2023-09-06T06:47:21.169Z,5.93
2023-09-06T06:48:44.238Z,4.80
2023-09-06T06:50:07.767Z,5.60
2023-09-06T06:51:36.094Z,5.80
2023-09-06T06:53:00.153Z,6.10
2023-09-06T06:54:22.715Z,5.70
2023-09-06T06:55:45.509Z,4.83
2023-09-06T06:57:08.288Z,4.90
2023-09-06T06:58:31.086Z,4.87
2023-09-06T06:59:53.861Z,4.73
2023-09-06T07:01:16.592Z,5.10
2023-09-06T07:02:39.965Z,4.80
2023-09-06T07:04:05.592Z,4.97
2023-09-06T07:05:28.524Z,5.27
2023-09-06T07:06:51.108Z,4.90
2023-09-06T07:08:13.631Z,5.17
2023-09-06T07:09:36.198Z,5.10
2023-09-06T07:11:00.585Z,4.60
2023-09-06T07:12:23.182Z,4.50
2023-09-06T07:13:46.931Z,5.40
2023-09-06T07:15:09.743Z,5.10
2023-09-06T07:16:34.940Z,4.10
2023-09-06T07:17:57.855Z,4.80
2023-09-06T07:19:20.673Z,4.37
2023-09-06T07:20:43.660Z,4.30
2023-09-06T07:22:06.164Z,3.67
2023-09-06T07:23:28.483Z,4.47
2023-09-06T07:24:50.558Z,4.13
2023-09-06T07:26:12.973Z,4.10
2023-09-06T07:27:35.135Z,4.10
2023-09-06T07:28:57.407Z,4.40
2023-09-06T07:30:19.553Z,3.87
2023-09-06T07:31:41.895Z,3.70
2023-09-06T07:33:04.685Z,3.73
2023-09-06T07:34:27.289Z,4.17
2023-09-06T07:35:49.846Z,4.07
2023-09-06T07:37:12.382Z,3.70
2023-09-06T07:38:35.559Z,4.23
2023-09-06T07:40:01.160Z,3.57
2023-09-06T07:41:23.815Z,4.10
2023-09-06T07:42:46.358Z,4.00
2023-09-06T07:44:08.886Z,4.40
2023-09-06T07:45:32.634Z,4.20
2023-09-06T07:46:55.287Z,4.10
2023-09-06T07:48:17.963Z,3.70
2023-09-06T07:49:44.156Z,3.80
2023-09-06T07:51:06.941Z,4.20
2023-09-06T07:52:29.438Z,4.07
2023-09-06T07:53:52.117Z,3.63
2023-09-06T07:55:14.686Z,3.60
2023-09-06T07:56:37.238Z,3.47
2023-09-06T07:57:59.820Z,3.70
2023-09-06T07:59:23.739Z,4.13
2023-09-06T08:00:46.580Z,3.60
2023-09-06T08:02:09.344Z,3.33
2023-09-06T08:03:32.251Z,3.60
2023-09-06T08:04:55.300Z,3.50
2023-09-06T08:06:18.212Z,3.33
2023-09-06T08:07:42.271Z,3.30
2023-09-06T08:09:04.891Z,3.10
2023-09-06T08:10:27.482Z,3.83
2023-09-06T08:11:50.244Z,3.33
2023-09-06T08:13:12.784Z,4.03
2023-09-06T08:14:35.421Z,3.10
2023-09-06T08:15:57.909Z,3.43
2023-09-06T08:17:20.554Z,3.37
2023-09-06T08:18:42.860Z,3.20
2023-09-06T08:20:05.790Z,3.93
2023-09-06T08:21:28.179Z,3.80
2023-09-06T08:22:50.459Z,3.63
2023-09-06T08:24:12.611Z,3.47
2023-09-06T08:25:35.506Z,3.77
2023-09-06T08:26:57.820Z,3.10
2023-09-06T08:28:19.946Z,3.50
2023-09-06T08:29:42.099Z,3.13
2023-09-06T08:31:04.943Z,3.67
2023-09-06T08:32:27.486Z,3.33
2023-09-06T08:33:49.833Z,3.93
2023-09-06T08:35:15.568Z,3.40
2023-09-06T08:36:37.707Z,3.40
2023-09-06T08:37:59.856Z,3.77
2023-09-06T08:39:21.949Z,4.23
2023-09-06T08:40:44.225Z,3.20
2023-09-06T08:42:07.515Z,3.70
2023-09-06T08:43:35.647Z,4.03
2023-09-06T08:44:57.888Z,4.03
2023-09-06T08:46:34.578Z,4.23
2023-09-06T08:47:58.024Z,3.23
2023-09-06T08:49:21.606Z,3.53
2023-09-06T08:50:46.653Z,4.13
2023-09-06T08:52:11.852Z,3.90
2023-09-06T08:53:35.246Z,3.83
2023-09-06T08:54:57.535Z,3.67
2023-09-06T08:56:21.003Z,3.60
2023-09-06T08:57:45.161Z,3.40
2023-09-06T08:59:09.471Z,4.00
2023-09-06T09:00:32.032Z,4.00
2023-09-06T09:01:54.488Z,3.80
2023-09-06T09:03:16.761Z,3.60
2023-09-06T09:04:43.428Z,3.80
2023-09-06T09:06:10.109Z,3.67
2023-09-06T09:07:32.684Z,3.80
2023-09-06T09:08:54.803Z,3.50
2023-09-06T09:10:17.093Z,4.10
2023-09-06T09:11:51.214Z,3.50
2023-09-06T09:13:13.620Z,3.20
2023-09-06T09:14:35.797Z,3.47
2023-09-06T09:15:58.148Z,3.13
2023-09-06T09:17:26.810Z,3.40
2023-09-06T09:18:49.152Z,3.70
2023-09-06T09:20:11.746Z,3.00
2023-09-06T09:21:33.832Z,3.30
2023-09-06T09:23:03.248Z,3.03
2023-09-06T09:24:28.690Z,2.80
2023-09-06T09:25:51.761Z,3.77
2023-09-06T09:27:13.967Z,3.20
2023-09-06T09:28:36.398Z,3.10
2023-09-06T09:30:01.769Z,3.00
2023-09-06T09:31:28.424Z,3.20
2023-09-06T09:32:58.151Z,3.07
2023-09-06T09:34:21.501Z,3.10
2023-09-06T09:35:45.095Z,2.90
2023-09-06T09:37:10.055Z,2.97
2023-09-06T09:38:32.337Z,2.83
2023-09-06T09:39:55.156Z,3.00
2023-09-06T09:41:17.820Z,2.27
2023-09-06T09:42:52.710Z,2.87
2023-09-06T09:44:16.094Z,3.10
2023-09-06T09:45:46.726Z,3.50
2023-09-06T09:47:31.838Z,3.30
2023-09-06T09:49:00.558Z,3.60
2023-09-06T09:50:23.687Z,3.23
2023-09-06T09:51:46.397Z,3.13
2023-09-06T09:54:43.725Z,3.20
2023-09-06T09:56:07.846Z,3.37
2023-09-06T09:57:32.499Z,3.50
2023-09-06T09:58:55.954Z,3.30
2023-09-06T10:00:18.801Z,3.30
2023-09-06T10:01:41.428Z,3.13
2023-09-06T10:03:05.625Z,2.90
2023-09-06T10:04:30.133Z,2.50
2023-09-06T10:05:53.312Z,3.50
2023-09-06T10:07:18.069Z,3.20
2023-09-06T10:08:44.194Z,3.27
2023-09-06T10:10:11.821Z,2.53
2023-09-06T10:11:36.000Z,3.30
2023-09-06T10:13:03.057Z,2.80
2023-09-06T10:14:26.630Z,2.60
2023-09-06T10:15:50.880Z,3.53
2023-09-06T10:17:13.993Z,2.73
2023-09-06T10:18:37.329Z,2.67
2023-09-06T10:19:59.871Z,3.10
2023-09-06T10:21:22.581Z,3.23
2023-09-06T10:22:47.386Z,2.90
2023-09-06T10:24:17.024Z,2.80
2023-09-06T10:25:44.758Z,3.23
2023-09-06T10:27:13.051Z,2.80
2023-09-06T10:28:36.164Z,3.10
2023-09-06T10:30:04.450Z,2.93
2023-09-06T10:31:49.707Z,2.67
2023-09-06T10:33:35.286Z,3.20
2023-09-06T10:35:26.952Z,2.50
2023-09-06T10:36:52.718Z,2.50
2023-09-06T10:38:19.478Z,3.00
2023-09-06T10:39:55.934Z,2.87
2023-09-06T10:41:20.952Z,3.30
2023-09-06T10:42:43.172Z,2.40
2023-09-06T10:44:07.424Z,2.63
2023-09-06T10:45:29.635Z,2.43
2023-09-06T10:46:52.286Z,2.87
2023-09-06T10:48:14.452Z,2.83
2023-09-06T10:49:36.895Z,2.47
2023-09-06T10:51:10.021Z,1.90
2023-09-06T10:52:44.060Z,2.50
2023-09-06T10:54:08.245Z,2.73
2023-09-06T10:55:43.573Z,2.70
2023-09-06T10:57:11.378Z,3.13
2023-09-06T10:58:38.823Z,3.10
2023-09-06T11:00:14.064Z,2.83
2023-09-06T11:01:46.736Z,3.30
2023-09-06T11:03:20.339Z,3.07
2023-09-06T11:04:43.798Z,3.00
2023-09-06T11:06:06.582Z,3.63
2023-09-06T11:07:50.729Z,3.03
2023-09-06T11:09:14.202Z,3.03
2023-09-06T11:10:37.343Z,3.23
2023-09-06T11:11:59.658Z,3.90
2023-09-06T11:13:23.957Z,3.20
2023-09-06T11:14:55.632Z,3.70
2023-09-06T11:16:17.826Z,3.97
2023-09-06T11:17:43.473Z,3.67
2023-09-06T11:19:07.101Z,3.73
2023-09-06T11:20:29.879Z,3.10
2023-09-06T11:22:05.231Z,3.20
2023-09-06T11:23:27.676Z,3.30
2023-09-06T11:24:49.896Z,3.70
2023-09-06T11:26:12.026Z,2.97
2023-09-06T11:27:38.866Z,3.23
2023-09-06T11:29:09.272Z,3.90
2023-09-06T11:30:35.190Z,3.50
2023-09-06T11:32:09.799Z,4.03
2023-09-06T11:33:32.706Z,3.33
2023-09-06T11:34:55.063Z,3.07
2023-09-06T11:36:18.923Z,2.77
2023-09-06T11:37:45.728Z,2.60
2023-09-06T11:39:20.413Z,2.37
2023-09-06T11:40:43.590Z,2.40
2023-09-06T11:42:06.509Z,2.60
2023-09-06T11:43:28.839Z,2.80
2023-09-06T11:44:54.842Z,2.77
2023-09-06T11:46:18.732Z,1.87
2023-09-06T11:47:43.622Z,2.20
2023-09-06T11:49:07.900Z,2.07
2023-09-06T11:50:32.108Z,2.30
2023-09-06T11:51:55.378Z,2.37
2023-09-06T11:53:17.857Z,3.07
2023-09-06T11:54:40.264Z,2.53
2023-09-06T11:56:06.367Z,3.10
2023-09-06T11:57:31.943Z,2.90
2023-09-06T11:58:55.774Z,2.57
2023-09-06T12:00:29.328Z,2.67
2023-09-06T12:02:00.086Z,2.43
2023-09-06T12:03:31.828Z,2.67
2023-09-06T12:05:03.887Z,2.50
2023-09-06T12:06:29.488Z,2.60
2023-09-06T12:07:51.743Z,2.40
2023-09-06T12:09:14.354Z,2.77
2023-09-06T12:10:37.236Z,2.70
2023-09-06T12:12:01.346Z,2.80
2023-09-06T12:13:30.867Z,2.90
2023-09-06T12:14:53.407Z,2.63
2023-09-06T12:16:17.301Z,2.60
2023-09-06T12:17:42.786Z,2.63
2023-09-06T12:19:05.005Z,3.10
2023-09-06T12:20:28.958Z,3.30
2023-09-06T12:21:51.188Z,2.80
2023-09-06T12:23:13.330Z,3.37
2023-09-06T12:24:35.523Z,2.60
2023-09-06T12:25:58.461Z,2.80
2023-09-06T12:27:22.052Z,2.90
2023-09-06T12:28:44.266Z,2.93
2023-09-06T12:30:07.129Z,2.93
2023-09-06T12:31:30.020Z,3.17
2023-09-06T12:32:52.322Z,2.80
2023-09-06T12:34:14.774Z,3.00
2023-09-06T12:35:39.721Z,3.47
2023-09-06T12:37:02.051Z,3.30
2023-09-06T12:38:24.256Z,3.30
2023-09-06T12:39:47.529Z,3.13
2023-09-06T12:41:10.076Z,2.87
2023-09-06T12:42:32.572Z,2.90
2023-09-06T12:43:54.848Z,2.97
2023-09-06T12:45:19.871Z,2.43
2023-09-06T12:46:42.166Z,2.83
2023-09-06T12:48:06.760Z,3.10
2023-09-06T12:49:29.250Z,3.03
2023-09-06T12:50:52.342Z,3.20
2023-09-06T12:52:21.152Z,3.23
2023-09-06T12:53:43.369Z,3.57
2023-09-06T12:55:06.198Z,2.90
2023-09-06T12:56:29.169Z,3.43
2023-09-06T12:57:51.935Z,3.50
2023-09-06T12:59:14.004Z,3.37
2023-09-06T13:00:36.100Z,2.90
2023-09-06T13:01:58.288Z,2.80
2023-09-06T13:03:20.538Z,3.27
2023-09-06T13:04:42.846Z,3.10
2023-09-06T13:06:06.792Z,2.90
2023-09-06T13:07:30.182Z,2.90
2023-09-06T13:08:52.300Z,3.40
2023-09-06T13:10:14.578Z,3.07
2023-09-06T13:11:36.796Z,3.20
2023-09-06T13:12:59.270Z,3.20
2023-09-06T13:14:21.363Z,3.30
2023-09-06T13:15:43.467Z,3.43
2023-09-06T13:17:05.895Z,3.63
2023-09-06T13:18:29.897Z,3.30
2023-09-06T13:19:52.856Z,3.30
2023-09-06T13:21:15.092Z,2.87
2023-09-06T13:22:40.605Z,3.03
2023-09-06T13:24:04.694Z,3.07
2023-09-06T13:25:26.875Z,3.00
2023-09-06T13:26:50.985Z,3.43
2023-09-06T13:28:13.158Z,3.50
2023-09-06T13:29:35.984Z,3.20
2023-09-06T13:30:58.279Z,3.27
2023-09-06T13:32:20.502Z,3.43
2023-09-06T13:33:44.759Z,3.00
2023-09-06T13:35:07.388Z,3.27
2023-09-06T13:36:31.796Z,3.63
2023-09-06T13:37:54.396Z,4.37
2023-09-06T13:39:18.392Z,3.20
2023-09-06T13:40:41.104Z,3.40
2023-09-06T13:42:03.801Z,3.87
2023-09-06T13:43:26.342Z,4.10
2023-09-06T13:44:48.866Z,3.63
2023-09-06T13:46:12.802Z,3.43
2023-09-06T13:47:35.345Z,3.07
2023-09-06T13:49:01.568Z,3.60
2023-09-06T13:50:24.127Z,3.30
2023-09-06T13:51:46.609Z,3.10
2023-09-06T13:53:09.125Z,3.07
2023-09-06T13:54:31.629Z,3.30
2023-09-06T13:55:54.115Z,3.13
2023-09-06T13:57:16.613Z,3.27
2023-09-06T13:58:39.132Z,3.37
2023-09-06T14:00:01.752Z,3.40
2023-09-06T14:01:24.526Z,3.00
2023-09-06T14:02:47.776Z,3.37
2023-09-06T14:04:10.474Z,3.10
2023-09-06T14:05:34.230Z,2.87
2023-09-06T14:06:56.768Z,3.20
2023-09-06T14:08:19.289Z,3.00
2023-09-06T14:09:41.869Z,3.47
2023-09-06T14:11:04.463Z,2.90
2023-09-06T14:12:28.066Z,3.07
2023-09-06T14:13:50.733Z,9.00
2023-09-06T14:15:13.342Z,3.50
2023-09-06T14:16:35.859Z,2.97
2023-09-06T14:17:59.247Z,3.30
2023-09-06T14:19:21.887Z,3.20
2023-09-06T14:20:44.792Z,3.07
2023-09-06T14:22:11.280Z,3.70
2023-09-06T14:23:33.806Z,3.23
2023-09-06T14:24:56.289Z,3.20
2023-09-06T14:26:18.859Z,3.53
2023-09-06T14:27:41.444Z,3.17
2023-09-06T14:29:04.049Z,3.10
2023-09-06T14:30:26.694Z,3.53
2023-09-06T14:31:49.335Z,3.10
2023-09-06T14:33:13.527Z,3.37
2023-09-06T14:34:36.105Z,3.33
2023-09-06T14:36:03.852Z,3.33
2023-09-06T14:37:26.453Z,3.80
2023-09-06T14:38:49.059Z,3.50
2023-09-06T14:40:12.170Z,3.40
2023-09-06T14:41:34.736Z,2.90
2023-09-06T14:42:57.610Z,3.10
2023-09-06T14:44:20.128Z,3.13
2023-09-06T14:45:42.804Z,3.23
2023-09-06T14:47:05.525Z,4.10
2023-09-06T14:48:28.307Z,3.53
2023-09-06T14:49:51.110Z,3.10
2023-09-06T14:51:13.683Z,4.20
2023-09-06T14:52:36.174Z,3.90
2023-09-06T14:53:58.700Z,3.70
2023-09-06T14:55:21.188Z,3.37
2023-09-06T14:56:44.006Z,3.30
2023-09-06T14:58:06.521Z,3.20
2023-09-06T14:59:29.776Z,3.33
2023-09-06T15:00:52.330Z,3.23
2023-09-06T15:02:14.913Z,3.27
2023-09-06T15:03:39.285Z,4.00
2023-09-06T15:05:02.229Z,3.17
2023-09-06T15:06:24.731Z,3.67
2023-09-06T15:07:47.219Z,3.80
2023-09-06T15:09:09.800Z,3.40
2023-09-06T15:10:33.588Z,3.73
2023-09-06T15:11:56.439Z,3.27
2023-09-06T15:13:19.132Z,3.57
2023-09-06T15:14:41.658Z,3.27
2023-09-06T15:16:04.318Z,3.43
2023-09-06T15:17:26.812Z,3.40
2023-09-06T15:18:50.833Z,3.50
2023-09-06T15:20:13.653Z,3.60
2023-09-06T15:21:36.194Z,3.90
2023-09-06T15:22:58.938Z,3.50
2023-09-06T15:24:21.440Z,3.60
2023-09-06T15:25:45.772Z,3.80
2023-09-06T15:27:08.413Z,4.00
2023-09-06T15:28:31.439Z,3.50
2023-09-06T15:29:54.119Z,4.03
2023-09-06T15:31:19.039Z,3.37
2023-09-06T15:32:43.488Z,3.43
2023-09-06T15:34:06.133Z,3.27
2023-09-06T15:35:29.490Z,3.20
2023-09-06T15:36:51.975Z,3.47
2023-09-06T15:38:15.720Z,3.40
2023-09-06T15:39:38.618Z,3.27
2023-09-06T15:41:02.757Z,3.03
2023-09-06T15:42:25.669Z,3.20
2023-09-06T15:43:48.325Z,3.40
2023-09-06T15:45:11.049Z,3.00
2023-09-06T15:46:33.756Z,3.37
2023-09-06T15:47:56.978Z,3.33
2023-09-06T15:49:19.662Z,3.10
2023-09-06T15:50:42.301Z,3.17
2023-09-06T15:52:05.117Z,3.40
2023-09-06T15:53:27.767Z,3.00
2023-09-06T15:54:50.380Z,3.40
2023-09-06T15:56:12.841Z,3.23
2023-09-06T15:57:35.392Z,3.47
2023-09-06T15:58:57.887Z,3.53
2023-09-06T16:00:31.774Z,3.23
2023-09-06T16:01:55.565Z,2.87
2023-09-06T16:03:18.337Z,3.53
2023-09-06T16:04:41.163Z,3.27
2023-09-06T16:06:03.764Z,3.70
2023-09-06T16:07:26.985Z,3.27
2023-09-06T16:08:49.596Z,3.90
2023-09-06T16:10:12.329Z,3.37
2023-09-06T16:11:34.807Z,2.80
2023-09-06T16:12:57.338Z,3.63
2023-09-06T16:14:19.896Z,2.93
2023-09-06T16:15:42.393Z,3.00
2023-09-06T16:17:05.787Z,3.33
2023-09-06T16:18:29.987Z,3.20
2023-09-06T16:19:52.831Z,3.30
2023-09-06T16:21:15.318Z,3.10
2023-09-06T16:22:37.826Z,3.43
2023-09-06T16:24:03.328Z,3.10
2023-09-06T16:25:25.847Z,2.80
2023-09-06T16:26:48.442Z,2.80
2023-09-06T16:28:11.049Z,3.70
2023-09-06T16:29:33.640Z,3.40
2023-09-06T16:30:56.185Z,3.60
2023-09-06T16:32:18.867Z,2.97
2023-09-06T16:33:41.557Z,3.33
2023-09-06T16:35:08.719Z,3.17
2023-09-06T16:36:32.059Z,2.70
2023-09-06T16:37:54.651Z,2.60
2023-09-06T16:39:17.128Z,3.73
2023-09-06T16:40:42.774Z,3.50
2023-09-06T16:42:05.376Z,3.20
2023-09-06T16:43:27.982Z,3.23
2023-09-06T16:44:50.435Z,3.50
2023-09-06T16:46:13.000Z,3.73
2023-09-06T16:47:35.604Z,2.80
2023-09-06T16:48:58.193Z,3.80
2023-09-06T16:50:21.253Z,3.37
2023-09-06T16:51:44.679Z,3.93
2023-09-06T16:53:07.429Z,3.63
2023-09-06T16:54:29.971Z,3.20
2023-09-06T16:55:52.514Z,3.20
2023-09-06T16:57:17.488Z,3.73
2023-09-06T16:58:42.955Z,3.27
2023-09-06T17:00:06.268Z,3.30
2023-09-06T17:01:29.001Z,3.40
2023-09-06T17:02:53.522Z,3.43
2023-09-06T17:04:16.817Z,3.80
2023-09-06T17:05:39.032Z,4.53
2023-09-06T17:07:01.248Z,3.40
2023-09-06T17:08:23.385Z,3.50
2023-09-06T17:09:45.605Z,3.73
2023-09-06T17:11:07.775Z,3.30
2023-09-06T17:12:29.894Z,4.00
2023-09-06T17:13:52.034Z,3.50
2023-09-06T17:15:22.454Z,3.40
2023-09-06T17:16:44.974Z,3.43
2023-09-06T17:18:08.231Z,3.70
2023-09-06T17:19:30.487Z,3.77
2023-09-06T17:20:52.665Z,3.40
2023-09-06T17:22:14.814Z,3.70
2023-09-06T17:23:42.114Z,3.50
2023-09-06T17:25:10.320Z,3.57
2023-09-06T17:26:32.745Z,3.37
2023-09-06T17:27:54.868Z,3.13
2023-09-06T17:29:17.286Z,3.47
2023-09-06T17:30:39.441Z,3.40
2023-09-06T17:32:05.685Z,3.07
2023-09-06T17:33:28.099Z,3.20
2023-09-06T17:34:50.744Z,3.73
2023-09-06T17:36:13.547Z,3.23
2023-09-06T17:37:36.157Z,3.57
2023-09-06T17:38:58.713Z,2.90
2023-09-06T17:40:21.171Z,3.13
2023-09-06T17:41:44.160Z,2.60
2023-09-06T17:43:09.857Z,2.80
2023-09-06T17:44:32.712Z,2.20
2023-09-06T17:45:56.946Z,3.00
2023-09-06T17:47:19.807Z,2.50
2023-09-06T17:48:42.510Z,2.33
2023-09-06T17:50:05.355Z,2.53
2023-09-06T17:51:27.855Z,2.40
2023-09-06T17:52:50.483Z,2.70
2023-09-06T17:54:14.346Z,2.40
2023-09-06T17:55:37.276Z,2.47
2023-09-06T17:57:00.953Z,2.27
2023-09-06T17:58:23.907Z,2.30
2023-09-06T17:59:46.616Z,2.20
2023-09-06T18:01:10.364Z,2.60
2023-09-06T18:02:33.730Z,2.40
2023-09-06T18:03:59.979Z,2.60
2023-09-06T18:05:23.129Z,2.33
2023-09-06T18:06:45.973Z,2.30
2023-09-06T18:08:12.528Z,2.30
2023-09-06T18:09:37.305Z,2.50
2023-09-06T18:10:59.846Z,3.23
2023-09-06T18:12:23.394Z,3.00
2023-09-06T18:13:45.920Z,3.13
2023-09-06T18:15:10.880Z,2.80
2023-09-06T18:16:35.329Z,3.50
2023-09-06T18:18:01.075Z,3.43
2023-09-06T18:19:26.594Z,3.30
2023-09-06T18:20:49.236Z,2.80
2023-09-06T18:22:12.959Z,3.10
2023-09-06T18:23:36.619Z,3.60
2023-09-06T18:25:00.800Z,3.30
2023-09-06T18:26:23.335Z,3.27
2023-09-06T18:27:45.870Z,3.80
2023-09-06T18:29:08.426Z,2.90
2023-09-06T18:30:31.439Z,3.50
2023-09-06T18:31:54.022Z,3.60
2023-09-06T18:33:20.554Z,3.20
2023-09-06T18:34:43.282Z,3.53
2023-09-06T18:36:09.988Z,3.43
2023-09-06T18:37:33.195Z,4.60
2023-09-06T18:38:55.803Z,3.67